createdAt,value
2022-11-19T00:04:37.820Z,8.95
2022-11-19T00:09:39.376Z,9.07
2022-11-19T00:14:41.158Z,9.15
2022-11-19T00:19:42.739Z,9.07
2022-11-19T00:24:44.278Z,8.60
2022-11-19T00:29:45.999Z,10.18
2022-11-19T00:34:47.776Z,9.93
2022-11-19T00:39:49.512Z,9.80
2022-11-19T00:44:51.359Z,9.85
2022-11-19T00:49:53.025Z,9.40
2022-11-19T00:54:54.626Z,9.75
2022-11-19T00:59:56.299Z,10.40
2022-11-19T01:04:57.945Z,10.13
2022-11-19T01:09:59.753Z,11.70
2022-11-19T01:15:01.339Z,11.18
2022-11-19T01:20:03.107Z,11.00
2022-11-19T01:25:05.136Z,11.85
2022-11-19T01:30:07.681Z,12.57
2022-11-19T01:35:09.434Z,11.60
2022-11-19T01:40:11.416Z,12.57
2022-11-19T01:45:33.220Z,12.10
2022-11-19T01:50:41.418Z,13.35
2022-11-19T01:55:44.362Z,12.40
2022-11-19T02:00:46.962Z,12.35
2022-11-19T02:05:48.690Z,13.68
2022-11-19T02:11:03.443Z,14.93
2022-11-19T02:16:40.672Z,15.35
2022-11-19T02:22:08.603Z,16.08
2022-11-19T02:27:46.674Z,17.65
2022-11-19T02:32:58.704Z,15.20
2022-11-19T02:38:27.898Z,14.68
2022-11-19T02:43:35.944Z,14.00
2022-11-19T02:48:42.041Z,11.82
2022-11-19T02:53:46.709Z,11.10
2022-11-19T02:58:52.622Z,12.00
2022-11-19T03:03:54.769Z,11.90
2022-11-19T03:08:56.516Z,9.52
2022-11-19T03:14:19.247Z,8.27
2022-11-19T03:19:42.951Z,6.70
2022-11-19T03:24:51.813Z,6.05
2022-11-19T03:29:57.944Z,5.30
2022-11-19T03:35:04.809Z,4.30
2022-11-19T03:45:19.902Z,4.03
2022-11-19T03:50:25.246Z,2.00
2022-11-19T03:55:34.362Z,1.80
2022-11-19T04:00:35.988Z,1.67
2022-11-19T04:05:37.531Z,1.75
2022-11-19T04:10:39.137Z,1.55
2022-11-19T04:15:40.710Z,1.80
2022-11-19T04:20:45.776Z,1.48
2022-11-19T04:25:47.449Z,1.92
2022-11-19T04:30:49.006Z,2.00
2022-11-19T04:35:50.539Z,2.17
2022-11-19T04:40:52.170Z,2.13
2022-11-19T04:45:53.945Z,2.78
2022-11-19T04:50:55.514Z,4.40
2022-11-19T04:55:57.111Z,3.53
2022-11-19T05:00:58.840Z,4.82
2022-11-19T05:06:00.645Z,5.70
2022-11-19T05:11:02.210Z,6.03
2022-11-19T05:16:04.012Z,5.47
2022-11-19T05:21:05.680Z,6.28
2022-11-19T05:26:07.206Z,6.60
2022-11-19T05:31:09.075Z,6.10
2022-11-19T05:36:10.683Z,7.78
2022-11-19T05:41:12.269Z,7.78
2022-11-19T05:46:13.819Z,10.00
2022-11-19T05:51:16.561Z,8.77
2022-11-19T05:56:18.184Z,9.20
2022-11-19T06:01:27.692Z,11.63
2022-11-19T06:06:29.234Z,11.93
2022-11-19T06:11:30.909Z,12.32
2022-11-19T06:16:32.462Z,12.63
2022-11-19T06:21:34.036Z,13.45
2022-11-19T06:26:35.968Z,12.77
2022-11-19T06:31:37.559Z,12.57
2022-11-19T06:36:43.752Z,13.38
2022-11-19T06:41:50.045Z,16.30
2022-11-19T06:46:51.740Z,15.20
2022-11-19T06:51:53.433Z,16.30
2022-11-19T06:56:55.055Z,15.95
2022-11-19T07:01:56.726Z,16.42
2022-11-19T07:06:58.386Z,17.40
2022-11-19T07:12:00.299Z,16.67
2022-11-19T07:17:05.172Z,15.35
2022-11-19T07:22:06.719Z,17.65
2022-11-19T07:27:08.512Z,15.85
2022-11-19T07:32:10.166Z,18.20
2022-11-19T07:37:11.782Z,16.45
2022-11-19T07:42:13.514Z,18.63
2022-11-19T07:47:15.720Z,18.50
2022-11-19T07:52:17.862Z,18.02
2022-11-19T07:57:20.016Z,16.33
2022-11-19T08:02:21.791Z,18.75
2022-11-19T08:07:23.365Z,18.02
2022-11-19T08:12:24.995Z,18.73
2022-11-19T08:17:31.267Z,17.98
2022-11-19T08:22:32.784Z,17.25
2022-11-19T08:27:34.323Z,18.65
2022-11-19T08:32:36.471Z,17.15
2022-11-19T08:37:38.138Z,16.75
2022-11-19T08:42:39.848Z,14.93
2022-11-19T08:47:41.451Z,14.80
2022-11-19T08:52:46.464Z,14.02
2022-11-19T08:57:48.424Z,12.38
2022-11-19T09:02:50.143Z,14.05
2022-11-19T09:07:51.854Z,12.32
2022-11-19T09:12:53.562Z,12.15
2022-11-19T09:17:55.122Z,11.05
2022-11-19T09:22:56.740Z,10.77
2022-11-19T09:27:58.456Z,10.63
2022-11-19T09:33:00.039Z,10.88
2022-11-19T09:38:01.762Z,12.02
2022-11-19T09:43:28.790Z,9.80
2022-11-19T09:48:38.494Z,10.25
2022-11-19T09:53:55.099Z,8.55
2022-11-19T09:58:59.028Z,10.85
2022-11-19T10:04:00.634Z,9.82
2022-11-19T10:09:23.224Z,9.02
2022-11-19T10:14:50.370Z,10.13
2022-11-19T10:20:01.748Z,8.57
2022-11-19T10:25:17.760Z,9.27
2022-11-19T10:30:25.375Z,8.98
2022-11-19T10:36:07.881Z,9.25
2022-11-19T10:41:22.236Z,8.95
2022-11-19T10:46:25.550Z,8.48
2022-11-19T10:51:39.642Z,9.68
2022-11-19T10:56:42.415Z,8.00
2022-11-19T11:01:47.024Z,10.68
2022-11-19T11:07:03.170Z,8.32
2022-11-19T11:12:12.971Z,8.80
2022-11-19T11:17:30.706Z,8.82
2022-11-19T11:22:33.988Z,8.23
2022-11-19T11:27:38.643Z,9.30
2022-11-19T11:32:41.342Z,8.95
2022-11-19T11:37:43.007Z,9.05
2022-11-19T11:42:46.592Z,8.68
2022-11-19T11:47:50.497Z,6.95
2022-11-19T11:52:54.435Z,8.25
2022-11-19T11:58:24.242Z,6.93
2022-11-19T12:03:25.913Z,7.43
2022-11-19T12:08:55.292Z,7.97
2022-11-19T12:14:11.334Z,7.55
2022-11-19T12:19:31.288Z,8.13
2022-11-19T12:24:39.111Z,7.05
2022-11-19T12:30:11.848Z,7.50
2022-11-19T12:35:46.085Z,7.70
2022-11-19T12:41:17.236Z,7.30
2022-11-19T12:46:49.397Z,7.47
2022-11-19T12:52:03.551Z,7.93
2022-11-19T12:57:33.027Z,8.55
2022-11-19T13:02:42.337Z,11.20
2022-11-19T13:08:06.297Z,8.10
2022-11-19T13:13:14.014Z,8.57
2022-11-19T13:18:19.309Z,8.30
2022-11-19T13:23:38.899Z,8.20
2022-11-19T13:28:50.426Z,7.97
2022-11-19T13:34:35.066Z,6.82
2022-11-19T13:39:52.164Z,7.78
2022-11-19T13:50:05.682Z,8.05
2022-11-19T13:55:42.203Z,8.02
2022-11-19T14:01:07.761Z,7.95
2022-11-19T14:06:35.771Z,7.60
2022-11-19T14:12:07.908Z,7.35
2022-11-19T14:17:28.026Z,7.15
2022-11-19T14:22:39.756Z,8.38
2022-11-19T14:27:42.503Z,8.65
2022-11-19T14:32:50.372Z,7.65
2022-11-19T14:37:55.669Z,7.85
2022-11-19T14:43:00.365Z,7.90
2022-11-19T14:48:03.947Z,7.35
2022-11-19T14:53:18.664Z,7.45
2022-11-19T14:58:24.345Z,7.95
2022-11-19T15:03:28.490Z,7.57
2022-11-19T15:08:46.751Z,8.30
2022-11-19T15:14:09.148Z,7.93
2022-11-19T15:19:46.128Z,7.30
2022-11-19T15:25:12.625Z,7.68
2022-11-19T15:30:27.322Z,7.68
2022-11-19T15:35:59.468Z,8.38
2022-11-19T15:41:03.345Z,8.80
2022-11-19T15:46:11.512Z,8.93
2022-11-19T15:51:16.404Z,9.75
2022-11-19T15:56:18.126Z,8.23
2022-11-19T16:01:21.637Z,14.52
2022-11-19T16:06:27.293Z,10.60
2022-11-19T16:11:32.156Z,10.63
2022-11-19T16:16:33.797Z,8.93
2022-11-19T16:21:39.557Z,10.10
2022-11-19T16:26:43.474Z,7.80
2022-11-19T16:31:45.178Z,8.30
2022-11-19T16:36:47.907Z,8.48
2022-11-19T16:41:51.497Z,9.50
2022-11-19T16:46:53.244Z,9.60
2022-11-19T16:51:54.832Z,7.70
2022-11-19T16:56:56.544Z,10.43
2022-11-19T17:01:58.951Z,8.75
2022-11-19T17:07:00.721Z,8.02
2022-11-19T17:12:02.402Z,9.32
2022-11-19T17:17:03.934Z,10.40
2022-11-19T17:22:15.534Z,9.88
2022-11-19T17:27:33.577Z,14.80
2022-11-19T17:32:41.521Z,11.68
2022-11-19T17:37:43.074Z,10.73
2022-11-19T17:42:44.591Z,10.23
2022-11-19T17:47:46.229Z,8.18
2022-11-19T17:52:47.741Z,7.57
2022-11-19T17:57:49.234Z,8.68
2022-11-19T18:02:50.735Z,7.45
2022-11-19T18:07:52.491Z,8.23
2022-11-19T18:12:54.243Z,8.13
2022-11-19T18:17:55.753Z,8.60
2022-11-19T18:22:57.336Z,8.38
2022-11-19T18:27:59.024Z,8.25
2022-11-19T18:33:00.550Z,8.38
2022-11-19T18:38:02.085Z,11.57
2022-11-19T18:43:03.736Z,15.45
2022-11-19T18:48:05.472Z,13.95
2022-11-19T18:53:09.767Z,10.07
2022-11-19T18:58:11.542Z,10.43
2022-11-19T19:03:13.361Z,8.85
2022-11-19T19:08:15.185Z,9.50
2022-11-19T19:13:16.780Z,10.00
2022-11-19T19:18:18.438Z,10.07
2022-11-19T19:23:20.071Z,10.00
2022-11-19T19:28:21.664Z,10.32
2022-11-19T19:33:23.262Z,9.82
2022-11-19T19:38:25.878Z,8.38
2022-11-19T19:43:29.544Z,11.77
2022-11-19T19:48:31.472Z,11.80
2022-11-19T19:53:33.256Z,17.20
2022-11-19T19:58:34.810Z,10.60
2022-11-19T20:03:36.889Z,13.55
2022-11-19T20:08:39.156Z,12.13
2022-11-19T20:13:41.602Z,10.07
2022-11-19T20:18:44.129Z,10.50
2022-11-19T20:23:46.685Z,9.15
2022-11-19T20:28:53.703Z,10.18
2022-11-19T20:33:58.061Z,11.18
2022-11-19T20:38:59.752Z,10.02
2022-11-19T20:44:02.331Z,10.02
2022-11-19T20:49:04.208Z,8.88
2022-11-19T20:54:06.161Z,9.05
2022-11-19T20:59:08.849Z,10.30
2022-11-19T21:04:11.747Z,9.30
2022-11-19T21:09:13.392Z,9.93
2022-11-19T21:14:14.922Z,9.90
2022-11-19T21:19:16.479Z,9.82
2022-11-19T21:24:17.974Z,11.10
2022-11-19T21:29:19.989Z,9.40
2022-11-19T21:34:21.861Z,10.93
2022-11-19T21:39:23.787Z,9.73
2022-11-19T21:44:25.772Z,9.82
2022-11-19T21:49:27.397Z,9.98
2022-11-19T21:54:28.939Z,9.65
2022-11-19T21:59:30.467Z,10.25
2022-11-19T22:04:32.143Z,10.25
2022-11-19T22:09:33.685Z,9.85
2022-11-19T22:14:35.220Z,10.40
2022-11-19T22:19:36.817Z,10.13
2022-11-19T22:24:38.363Z,10.13
2022-11-19T22:29:39.882Z,11.45
2022-11-19T22:34:41.419Z,11.60
2022-11-19T22:39:42.987Z,9.98
2022-11-19T22:44:44.512Z,11.55
2022-11-19T22:49:46.144Z,12.55
2022-11-19T22:54:47.940Z,10.70
2022-11-19T22:59:49.560Z,10.90
2022-11-19T23:04:51.157Z,12.57
2022-11-19T23:09:52.658Z,11.82
2022-11-19T23:14:54.297Z,11.25
2022-11-19T23:20:04.268Z,10.88
2022-11-19T23:25:06.620Z,10.40
2022-11-19T23:30:08.761Z,10.95
2022-11-19T23:35:10.742Z,10.52
2022-11-19T23:40:12.585Z,9.65
2022-11-19T23:45:14.157Z,11.02
2022-11-19T23:50:15.783Z,9.50
2022-11-19T23:55:17.560Z,11.60
